WEATHER DATA

TODAY
Time Temp. Dewp. Hum. Wind dir Wind speed Wind gust Bar. 1h Prec. 24h Prec.
00:04 2.3 0.2 86 225 0.3 1.1 1019.3 0.0000 0.0000
00:14 2.1 0 86 229 0.3 1.1 1019.4 0.0000 0.0000
00:24 2.1 0 86 230 0.3 0.8 1019.4 0.0000 0.0000
00:35 2 -0.1 86 229 0.6 1.4 1019.4 0.0000 0.0000
00:45 1.9 -0.2 86 225 0.6 2.2 1019.4 0.0000 0.0000
00:55 1.9 0 87 238 0.8 1.9 1019.5 0.0000 0.0000
01:04 1.8 -0.1 87 233 0.6 1.1 1019.5 0.0000 0.0000
01:15 1.8 -0.1 87 219 0.3 1.1 1019.3 0.0000 0.0000
01:25 1.7 -0.2 87 229 0.6 1.1 1019.4 0.0000 0.0000
01:35 1.7 -0.2 87 216 0.3 0.8 1019.2 0.0000 0.0000
01:45 1.6 -0.3 87 225 0.3 0.8 1019.4 0.0000 0.0000
01:56 1.6 -0.3 87 220 0.6 1.1 1019.1 0.0000 0.0000
02:05 1.6 -0.3 87 210 0.3 1.4 1019.2 0.0000 0.0000
02:15 1.6 -0.1 88 233 0.6 1.7 1019.1 0.0000 0.0000
02:26 1.6 -0.1 88 198 0.3 0.8 1019 0.0000 0.0000
02:37 1.5 -0.4 87 45 0.3 0.8 1019 0.0000 0.0000
02:47 1.3 -0.7 86 26 0.3 0.8 1019 0.0000 0.0000
02:56 1.2 -0.8 86 213 0.3 0.8 1018.8 0.0000 0.0000
03:07 1 -0.9 86 225 0.3 0.6 1018.9 0.0000 0.0000
03:17 0.9 -0.9 87 200 0.3 0.6 1018.9 0.0000 0.0000
03:27 0.8 -1 87 180 0.3 0.6 1018.8 0.0000 0.0000
03:37 0.7 -1.1 87 225 0.3 0.8 1018.8 0.0000 0.0000
03:48 0.7 -1.1 87 195 0.3 0.6 1018.7 0.0000 0.0000
03:58 0.6 -1.2 87 221 0.3 1.1 1018.8 0.0000 0.0000
04:08 0.5 -1.2 87 230 0.3 0.6 1018.9 0.0000 0.0000
04:18 0.5 -1.2 87 200 0.3 0.6 1018.8 0.0000 0.0000
04:29 0.4 -1.3 87 0 0.6 1018.9 0.0000 0.0000
04:39 0.4 -1.3 87 0 0.6 1018.9 0.0000 0.0000
04:49 0.3 -1.4 87 212 0.3 0.6 1018.8 0.0000 0.0000
04:59 0.3 -1.3 88 204 0.3 0.6 1018.8 0.0000 0.0000
05:09 0.2 -1.4 88 209 0.3 0.8 1019 0.0000 0.0000
05:19 0.2 -1.4 88 212 0.3 0.6 1019 0.0000 0.0000
05:29 0.2 -1.4 88 212 0.3 0.8 1019 0.0000 0.0000
05:39 0.2 -1.4 88 213 0.3 0.6 1019 0.0000 0.0000
05:49 0.1 -1.5 88 216 0.3 0.6 1018.9 0.0000 0.0000
05:59 0.2 -1.4 88 212 0.3 0.8 1018.9 0.0000 0.0000
06:09 0.2 -1.2 89 213 0.6 1.1 1019.1 0.0000 0.0000
06:20 0.2 -1.2 89 194 0.3 0.6 1019 0.0000 0.0000
06:30 0.3 -1.1 89 225 0.3 0.8 1018.8 0.0000 0.0000
06:40 0.3 -1 90 221 0.3 0.8 1018.9 0.0000 0.0000
06:50 0.4 -0.9 90 0 0.6 1019.1 0.0000 0.0000
07:00 0.4 -0.9 90 180 0.3 0.8 1019.1 0.0000 0.0000
07:31 0.5 -0.8 90 0 0.6 1019.5 0.0000 0.0000
07:41 0.6 -0.7 90 0 0.6 1019.5 0.0000 0.0000
07:51 0.6 -0.7 90 45 0.6 1.4 1019.7 0.0000 0.0000
08:01 0.7 -0.7 90 41 0.6 1.1 1019.7 0.0000 0.0000
08:12 0.9 -0.5 90 28 0.3 1.1 1019.8 0.0000 0.0000
08:22 1 -0.3 91 270 0.3 1.1 1019.8 0.0000 0.0000
08:32 1.3 0 91 0 0.6 1019.8 0.0000 0.0000
08:42 1.4 0.1 91 200 0.3 0.8 1019.9 0.0000 0.0000
08:53 1.5 0.2 91 165 0.3 0.6 1020.1 0.0000 0.0000
09:03 1.7 0.4 91 214 0.6 1.4 1020.3 0.0000 0.0000
09:13 2 0.8 92 201 0.3 1.4 1020.4 0.0000 0.0000
09:23 2.4 1.2 92 217 0.3 1.4 1020.5 0.0000 0.0000
09:33 2.7 1.7 93 229 0.8 1.9 1020.6 0.0000 0.0000
09:43 3.1 2.1 93 238 0.8 2.2 1020.4 0.0000 0.0000
09:53 3.5 2.3 92 231 0.6 1.7 1020.6 0.0000 0.0000
10:04 3.9 2.7 92 240 0.6 1.9 1020.8 0.0000 0.0000
10:14 4.3 3 91 226 0.8 1.9 1020.9 0.0000 0.0000
10:24 4.6 3.1 90 239 0.8 3.3 1020.9 0.0000 0.0000
10:33 4.9 3.2 89 237 0.8 2.5 1020.9 0.0000 0.0000
10:44 5.1 3.3 88 228 0.6 3.3 1021.1 0.0000 0.0000
10:54 5.5 3.5 87 225 1.1 2.8 1020.9 0.0000 0.0000
11:04 5.8 3.8 87 228 0.6 1.7 1021.1 0.0000 0.0000
11:14 6 3.8 86 225 0.6 1.9 1020.9 0.0000 0.0000
11:25 6.1 3.9 86 233 0.8 2.8 1021.2 0.0000 0.0000
11:34 6.3 4.1 86 225 0.8 3.3 1021.3 0.0000 0.0000
11:44 6.4 4.1 85 226 0.8 3.6 1021.3 0.0000 0.0000
11:55 6.6 4.3 85 225 1.1 3.6 1021.5 0.0000 0.0000
12:07 6.8 4.3 84 230 1.1 2.8 1021.6 0.0000 0.0000
12:17 7 4.3 83 227 0.8 2.8 1021.5 0.0000 0.0000
12:27 7.2 4.5 83 233 0.8 2.2 1021.3 0.0000 0.0000
12:37 7.3 4.4 82 248 0.8 2.8 1021.1 0.0000 0.0000
12:48 7.5 4.6 82 236 0.6 1.7 1021 0.0000 0.0000
12:57 7.6 4.7 82 233 0.8 3.1 1020.9 0.0000 0.0000
13:07 7.8 4.7 81 230 0.8 3.6 1020.8 0.0000 0.0000
13:18 7.9 4.8 81 225 0.8 3.1 1020.6 0.0000 0.0000
13:28 8 4.8 80 219 1.1 3.1 1020.6 0.0000 0.0000
13:38 8.1 4.9 80 223 1.4 3.9 1020.4 0.0000 0.0000
13:47 8.2 5 80 228 1.1 3.3 1020.2 0.0000 0.0000
13:58 8.3 4.9 79 235 1.1 7.5 1020.2 0.0000 0.0000
14:07 8.4 5 79 227 0.8 3.3 1019.9 0.0000 0.0000
14:17 8.5 4.9 78 234 0.8 1.9 1020 0.0000 0.0000
14:27 8.6 5 78 223 1.4 3.3 1019.9 0.0000 0.0000
14:38 8.7 4.7 76 235 1.4 3.9 1019.9 0.0000 0.0000
14:48 8.9 4.5 74 234 1.7 4.4 1020 0.0000 0.0000
14:57 9 4.4 73 226 1.1 2.2 1020.2 0.0000 0.0000
15:08 9 4.2 72 226 1.1 3.3 1020.2 0.0000 0.0000
15:18 8.8 4 72 231 1.1 3.3 1020.3 0.0000 0.0000
15:28 8.7 3.9 72 229 0.8 3.1 1020.3 0.0000 0.0000
15:38 8.8 4 72 228 1.1 3.3 1020.3 0.0000 0.0000
15:48 8.9 3.9 71 222 1.1 4.7 1020.3 0.0000 0.0000
15:58 8.9 3.7 70 225 0.8 4.2 1020.4 0.0000 0.0000
16:08 8.9 3.9 71 219 0.8 2.8 1020.4 0.0000 0.0000
16:19 8.8 3.6 70 226 1.1 5 1020.3 0.0000 0.0000
16:28 8.9 3.7 70 225 0.8 2.8 1020.4 0.0000 0.0000
16:38 8.8 3.6 70 215 1.1 2.8 1020.5 0.0000 0.0000
16:49 8.7 3.5 70 203 0.6 2.2 1020.4 0.0000 0.0000
16:59 8.6 3.6 71 225 0.8 3.3 1020.4 0.0000 0.0000
17:08 8.5 3.6 71 221 0.6 2.5 1020.5 0.0000 0.0000
17:18 8.4 3.7 72 221 0.6 1.7 1020.6 0.0000 0.0000
17:29 8.3 3.6 72 214 0.6 1.4 1020.6 0.0000 0.0000
17:39 8.1 3.4 72 198 0.6 2.2 1020.8 0.0000 0.0000

DAY STATISTIC

2019-02-19
TEMPERATURE
AVERAGE
4.0
HIGH
9.0
14:57
LOW
0.1
05:49
PRESSURE
AVERAGE
1019.9
HIGH
1021.6
12:07
LOW
1018.7
03:48
DEWPOINT
AVERAGE
1.6
HIGH
5.0
13:47
LOW
-1.5
05:49
HUMIDITY
AVERAGE
84
HIGH
93
09:33
LOW
70
15:58
WIND SPEED
AVERAGE
0.6
HIGH
1.7
14:48
WIND GUST
AVERAGE
1.9
HIGH
7.5
13:58
WIND DIRECTION
PREVAILING
SW
74.8%
N
0.0
NE
4.9
E
0.0
SE
0.0
S
12.6
SW
74.8
W
1.9
NW
0.0
PRECIPITATION
RAIN HOUR
0.0
RAIN DAY
0.0
TEMPERATURE (°C)
LOW
0.1
HIGH
9.0
AVERAGE
4.0
PRESSURE (hpa)
LOW
1018.7
HIGH
1021.6
AVERAGE
1019.9
DEVICE